Terminal Aerodrome Forecast
Issued by NWS

Home | Current Version | Previous Version | Text Only | Print | Product List | Glossary On
Versions: 1 2 3 4 5 6 7 8 9 10 11 12 13 14 15 16 17 18 19 20 21 22
000
FTUS44 KMOB 201720
TAFBFM
TAF
KBFM 201720Z 2018/2118 15014KT P6SM VCSH SCT027
     FM210000 13009KT 4SM BR OVC010
     FM210600 12006KT 3SM BR OVC003
      TEMPO 2108/2112 1/2SM FG VV003
     FM211500 14010KT 4SM BR BKN015=

USA.gov is the U.S. government's official web portal to all federal, state and local government web resources and services.